createdAt,value
2022-12-11T00:00:53.449Z,30.15
2022-12-11T00:05:55.194Z,28.90
2022-12-11T00:10:56.904Z,33.60
2022-12-11T00:15:58.916Z,30.92
2022-12-11T00:21:01.819Z,35.10
2022-12-11T00:26:09.322Z,37.35
2022-12-11T00:31:17.728Z,29.40
2022-12-11T00:36:22.736Z,29.63
2022-12-11T00:41:24.882Z,25.98
2022-12-11T00:46:26.650Z,26.27
2022-12-11T00:51:28.367Z,27.67
2022-12-11T00:56:30.659Z,26.02
2022-12-11T01:01:32.478Z,23.58
2022-12-11T01:06:34.279Z,25.33
2022-12-11T01:11:36.247Z,22.55
2022-12-11T01:16:38.257Z,26.77
2022-12-11T01:21:40.137Z,29.95
2022-12-11T01:26:41.847Z,32.10
2022-12-11T01:31:43.598Z,34.63
2022-12-11T01:36:45.305Z,36.75
2022-12-11T01:41:47.099Z,32.38
2022-12-11T01:46:49.000Z,31.67
2022-12-11T01:51:58.755Z,37.78
2022-12-11T01:57:06.817Z,30.02
2022-12-11T02:02:26.078Z,37.78
2022-12-11T02:07:30.028Z,31.98
2022-12-11T02:12:53.500Z,29.77
2022-12-11T02:18:09.484Z,30.40
2022-12-11T02:23:29.615Z,27.48
2022-12-11T02:28:50.725Z,33.67
2022-12-11T02:34:03.215Z,35.78
2022-12-11T02:39:07.057Z,31.58
2022-12-11T02:44:12.140Z,35.53
2022-12-11T02:49:15.789Z,30.55
2022-12-11T02:54:22.307Z,35.40
2022-12-11T02:59:30.725Z,28.67
2022-12-11T03:04:36.119Z,32.45
2022-12-11T03:09:46.066Z,25.27
2022-12-11T03:14:48.898Z,29.70
2022-12-11T03:20:13.398Z,22.30
2022-12-11T03:25:23.264Z,26.13
2022-12-11T03:30:28.537Z,27.40
2022-12-11T03:35:38.722Z,23.30
2022-12-11T03:40:44.963Z,24.83
2022-12-11T03:45:49.527Z,24.35
2022-12-11T03:55:58.117Z,26.85
2022-12-11T04:00:59.865Z,26.13
2022-12-11T04:06:01.666Z,24.40
2022-12-11T04:11:22.834Z,21.02
2022-12-11T04:16:24.558Z,22.42
2022-12-11T04:21:44.758Z,22.05
2022-12-11T04:26:47.531Z,26.52
2022-12-11T04:31:50.592Z,24.40
2022-12-11T04:36:52.419Z,30.50
2022-12-11T04:41:54.141Z,22.88
2022-12-11T04:46:55.859Z,26.52
2022-12-11T04:51:57.568Z,23.38
2022-12-11T04:56:59.368Z,26.25
2022-12-11T05:02:01.176Z,22.45
2022-12-11T05:07:02.948Z,21.92
2022-12-11T05:12:04.791Z,25.67
2022-12-11T05:17:06.505Z,22.77
2022-12-11T05:22:08.273Z,28.05
2022-12-11T05:27:10.934Z,24.80
2022-12-11T05:32:12.747Z,29.70
2022-12-11T05:37:14.500Z,31.52
2022-12-11T05:42:16.208Z,22.63
2022-12-11T05:47:20.215Z,27.15
2022-12-11T05:52:21.946Z,25.83
2022-12-11T05:57:23.686Z,27.25
2022-12-11T06:02:25.524Z,24.65
2022-12-11T06:07:27.338Z,28.48
2022-12-11T06:12:29.824Z,25.35
2022-12-11T06:17:31.534Z,20.67
2022-12-11T06:22:33.255Z,21.73
2022-12-11T06:27:35.332Z,28.92
2022-12-11T06:32:37.017Z,21.88
2022-12-11T06:37:40.407Z,24.45
2022-12-11T06:42:42.319Z,22.25
2022-12-11T06:47:44.060Z,25.33
2022-12-11T06:52:45.764Z,24.15
2022-12-11T06:57:47.529Z,27.88
2022-12-11T07:02:51.264Z,28.27
2022-12-11T07:07:56.127Z,25.23
2022-12-11T07:12:57.954Z,24.52
2022-12-11T07:17:59.722Z,20.42
2022-12-11T07:23:01.454Z,24.58
2022-12-11T07:28:03.214Z,22.13
2022-12-11T07:33:05.725Z,24.38
2022-12-11T07:38:08.149Z,20.17
2022-12-11T07:43:09.871Z,29.35
2022-12-11T07:48:12.736Z,29.20
2022-12-11T07:53:14.457Z,30.48
2022-12-11T07:58:16.315Z,26.10
2022-12-11T08:03:18.016Z,26.98
2022-12-11T08:08:20.172Z,24.98
2022-12-11T08:13:21.975Z,21.58
2022-12-11T08:18:23.913Z,21.60
2022-12-11T08:23:25.627Z,21.73
2022-12-11T08:28:27.480Z,20.90
2022-12-11T08:33:29.176Z,23.50
2022-12-11T08:38:31.350Z,22.23
2022-12-11T08:43:33.956Z,21.17
2022-12-11T08:48:37.773Z,20.95
2022-12-11T08:53:40.856Z,18.60
2022-12-11T08:58:44.078Z,22.15
2022-12-11T09:03:45.813Z,23.67
2022-12-11T09:08:52.686Z,19.10
2022-12-11T09:13:55.383Z,18.70
2022-12-11T09:18:58.736Z,17.55
2022-12-11T09:24:01.602Z,19.48
2022-12-11T09:29:05.716Z,24.58
2022-12-11T09:34:09.423Z,18.92
2022-12-11T09:39:12.552Z,24.13
2022-12-11T09:44:29.045Z,19.33
2022-12-11T09:49:37.504Z,21.30
2022-12-11T09:54:49.118Z,18.50
2022-12-11T10:00:11.374Z,19.45
2022-12-11T10:05:31.025Z,18.13
2022-12-11T10:10:45.877Z,20.10
2022-12-11T10:15:54.406Z,19.65
2022-12-11T10:20:57.295Z,21.35
2022-12-11T10:26:08.463Z,24.50
2022-12-11T10:31:22.155Z,19.50
2022-12-11T10:36:30.211Z,18.88
2022-12-11T10:41:31.900Z,13.98
2022-12-11T10:46:33.743Z,16.15
2022-12-11T10:51:37.492Z,16.83
2022-12-11T10:56:39.261Z,16.47
2022-12-11T11:01:46.946Z,13.82
2022-12-11T11:06:49.775Z,13.93
2022-12-11T11:11:51.581Z,18.92
2022-12-11T11:16:57.289Z,17.85
2022-12-11T11:22:08.194Z,16.13
2022-12-11T11:27:42.252Z,18.25
2022-12-11T11:32:44.042Z,15.93
2022-12-11T11:38:08.115Z,14.68
2022-12-11T11:43:44.261Z,14.20
2022-12-11T11:48:48.743Z,14.00
2022-12-11T11:53:53.490Z,15.23
2022-12-11T11:59:26.072Z,13.13
2022-12-11T12:04:33.608Z,13.73
2022-12-11T12:10:10.617Z,12.73
2022-12-11T12:15:18.193Z,12.93
2022-12-11T12:20:37.073Z,14.68
2022-12-11T12:26:04.274Z,13.98
2022-12-11T12:31:16.347Z,21.17
2022-12-11T12:36:26.873Z,18.95
2022-12-11T12:41:36.496Z,11.95
2022-12-11T12:47:13.940Z,12.52
2022-12-11T12:52:24.950Z,8.10
2022-12-11T12:57:26.718Z,17.08
2022-12-11T13:02:29.288Z,22.83
2022-12-11T13:07:32.692Z,13.48
2022-12-11T13:12:46.375Z,12.98
2022-12-11T13:17:48.116Z,13.55
2022-12-11T13:23:07.730Z,13.15
2022-12-11T13:28:27.210Z,11.68
2022-12-11T13:33:30.488Z,13.48
2022-12-11T13:38:32.419Z,14.40
2022-12-11T13:43:34.305Z,14.77
2022-12-11T13:48:46.226Z,16.88
2022-12-11T13:53:48.549Z,15.13
2022-12-11T13:58:50.386Z,18.23
2022-12-11T14:03:59.268Z,17.40
2022-12-11T14:09:02.794Z,14.95
2022-12-11T14:14:08.622Z,14.82
2022-12-11T14:19:15.150Z,15.35
2022-12-11T14:24:16.919Z,12.00
2022-12-11T14:29:31.839Z,12.20
2022-12-11T14:34:36.167Z,10.77
2022-12-11T14:39:55.533Z,14.65
2022-12-11T14:45:16.816Z,13.13
2022-12-11T14:50:27.251Z,18.50
2022-12-11T14:55:32.592Z,17.25
2022-12-11T15:00:36.190Z,11.80
2022-12-11T15:05:49.883Z,13.90
2022-12-11T15:11:16.614Z,14.60
2022-12-11T15:16:19.866Z,14.30
2022-12-11T15:21:30.752Z,24.25
2022-12-11T15:26:45.104Z,16.67
2022-12-11T15:31:46.903Z,16.80
2022-12-11T15:36:48.668Z,17.35
2022-12-11T15:41:51.394Z,14.23
2022-12-11T15:46:53.516Z,17.95
2022-12-11T15:51:55.405Z,19.33
2022-12-11T15:56:58.072Z,23.17
2022-12-11T16:02:00.228Z,24.33
2022-12-11T16:07:02.030Z,19.85
2022-12-11T16:12:04.305Z,21.60
2022-12-11T16:17:07.965Z,22.08
2022-12-11T16:22:11.062Z,20.00
2022-12-11T16:27:13.182Z,26.00
2022-12-11T16:32:15.156Z,24.58
2022-12-11T16:37:16.921Z,24.98
2022-12-11T16:42:18.699Z,24.80
2022-12-11T16:47:22.079Z,38.10
2022-12-11T16:52:25.720Z,52.67
2022-12-11T16:57:28.122Z,34.10
2022-12-11T17:02:29.886Z,26.30
2022-12-11T17:07:32.543Z,29.33
2022-12-11T17:12:34.431Z,26.27
2022-12-11T17:17:36.221Z,31.90
2022-12-11T17:22:38.431Z,26.90
2022-12-11T17:27:40.224Z,26.38
2022-12-11T17:32:42.184Z,30.67
2022-12-11T17:37:44.010Z,26.17
2022-12-11T17:42:45.791Z,34.63
2022-12-11T17:47:47.503Z,33.30
2022-12-11T17:52:49.243Z,29.67
2022-12-11T17:57:51.028Z,31.35
2022-12-11T18:02:53.097Z,32.70
2022-12-11T18:07:57.873Z,24.73
2022-12-11T18:13:00.411Z,24.90
2022-12-11T18:18:02.446Z,24.30
2022-12-11T18:23:05.613Z,24.10
2022-12-11T18:28:07.332Z,19.38
2022-12-11T18:33:09.348Z,20.70
2022-12-11T18:38:11.050Z,23.33
2022-12-11T18:43:13.931Z,21.23
2022-12-11T18:48:15.701Z,22.45
2022-12-11T18:53:18.731Z,19.48
2022-12-11T18:58:20.575Z,19.83
2022-12-11T19:03:22.305Z,21.10
2022-12-11T19:08:24.252Z,21.52
2022-12-11T19:13:26.010Z,20.38
2022-12-11T19:18:27.886Z,18.02
2022-12-11T19:23:29.625Z,18.25
2022-12-11T19:28:33.829Z,20.20
2022-12-11T19:33:35.613Z,23.95
2022-12-11T19:38:39.061Z,19.55
2022-12-11T19:43:40.812Z,16.95
2022-12-11T19:48:43.288Z,19.27
2022-12-11T19:53:46.321Z,17.77
2022-12-11T19:58:48.512Z,21.30
2022-12-11T20:03:51.233Z,18.52
2022-12-11T20:08:53.020Z,20.17
2022-12-11T20:13:55.926Z,21.67
2022-12-11T20:18:57.671Z,17.42
2022-12-11T20:24:00.489Z,14.70
2022-12-11T20:29:05.131Z,21.63
2022-12-11T20:39:08.829Z,17.40
2022-12-11T20:44:10.565Z,22.30
2022-12-11T20:49:13.102Z,21.55
2022-12-11T20:54:15.265Z,17.42
2022-12-11T20:59:17.146Z,15.85
2022-12-11T21:04:18.881Z,20.73
2022-12-11T21:09:22.614Z,19.15
2022-12-11T21:14:24.406Z,21.27
2022-12-11T21:19:26.427Z,19.27
2022-12-11T21:24:29.966Z,15.60
2022-12-11T21:29:31.849Z,16.20
2022-12-11T21:34:33.699Z,19.92
2022-12-11T21:39:39.282Z,15.07
2022-12-11T21:45:31.316Z,17.33
2022-12-11T21:50:04.292Z,16.00
2022-12-11T21:55:06.790Z,16.63
2022-12-11T22:00:09.404Z,20.27
2022-12-11T22:05:14.299Z,26.83
2022-12-11T22:10:16.353Z,21.00
2022-12-11T22:15:18.098Z,20.10
2022-12-11T22:20:19.916Z,20.17
2022-12-11T22:25:21.809Z,16.02
2022-12-11T22:30:23.529Z,17.73
2022-12-11T22:35:27.369Z,20.40
2022-12-11T22:40:29.941Z,19.63
2022-12-11T22:45:31.738Z,18.40
2022-12-11T22:50:34.322Z,23.30
2022-12-11T22:55:38.790Z,21.58
2022-12-11T23:00:41.916Z,19.42
2022-12-11T23:05:43.784Z,21.35
2022-12-11T23:10:45.903Z,19.40
2022-12-11T23:15:47.672Z,18.83
2022-12-11T23:20:49.650Z,20.58
2022-12-11T23:25:51.843Z,21.83
2022-12-11T23:30:53.649Z,20.42
2022-12-11T23:35:55.471Z,25.60
2022-12-11T23:40:59.801Z,25.38
2022-12-11T23:46:02.306Z,21.67
2022-12-11T23:51:05.632Z,24.55
2022-12-11T23:56:15.493Z,25.23
